createdAt,value
2023-04-23T00:02:19.656Z,9.73
2023-04-23T00:04:54.335Z,6.90
2023-04-23T00:07:24.882Z,6.87
2023-04-23T00:10:00.442Z,8.10
2023-04-23T00:12:32.004Z,7.50
2023-04-23T00:15:02.775Z,7.70
2023-04-23T00:17:33.425Z,10.43
2023-04-23T00:20:03.178Z,9.23
2023-04-23T00:22:33.812Z,11.90
2023-04-23T00:25:06.519Z,8.90
2023-04-23T00:27:36.300Z,11.23
2023-04-23T00:30:07.081Z,14.10
2023-04-23T00:32:36.942Z,12.97
2023-04-23T00:35:07.644Z,12.47
2023-04-23T00:37:37.419Z,12.90
2023-04-23T00:40:11.820Z,15.10
2023-04-23T00:42:42.417Z,14.77
2023-04-23T00:45:13.000Z,27.30
2023-04-23T00:47:43.811Z,23.20
2023-04-23T00:50:13.895Z,25.33
2023-04-23T00:52:43.696Z,24.57
2023-04-23T00:55:16.392Z,25.77
2023-04-23T00:57:46.452Z,23.33
2023-04-23T01:00:18.059Z,26.63
2023-04-23T01:02:48.525Z,22.70
2023-04-23T01:05:20.282Z,29.63
2023-04-23T01:07:50.936Z,27.60
2023-04-23T01:10:23.852Z,25.00
2023-04-23T01:12:53.637Z,24.47
2023-04-23T01:15:23.692Z,27.03
2023-04-23T01:17:53.885Z,26.30
2023-04-23T01:20:23.723Z,25.70
2023-04-23T01:22:56.475Z,36.83
2023-04-23T01:25:26.294Z,27.87
2023-04-23T01:27:56.125Z,26.30
2023-04-23T01:30:27.213Z,25.67
2023-04-23T01:32:58.035Z,30.70
2023-04-23T01:35:29.001Z,34.77
2023-04-23T01:38:04.438Z,37.50
2023-04-23T01:40:34.238Z,29.40
2023-04-23T01:43:04.453Z,32.27
2023-04-23T01:45:34.329Z,31.73
2023-04-23T01:48:04.465Z,32.70
2023-04-23T01:50:34.546Z,34.10
2023-04-23T01:53:06.919Z,32.63
2023-04-23T01:55:40.674Z,32.60
2023-04-23T01:58:10.525Z,31.70
2023-04-23T02:00:40.260Z,31.43
2023-04-23T02:03:10.173Z,33.40
2023-04-23T02:05:41.714Z,33.70
2023-04-23T02:08:14.402Z,32.53
2023-04-23T02:10:44.240Z,32.23
2023-04-23T02:13:14.943Z,32.80
2023-04-23T02:15:45.376Z,41.67
2023-04-23T02:18:15.337Z,34.30
2023-04-23T02:20:45.237Z,37.73
2023-04-23T02:23:17.701Z,37.93
2023-04-23T02:25:47.471Z,40.80
2023-04-23T02:28:17.207Z,42.97
2023-04-23T02:30:48.085Z,49.97
2023-04-23T02:33:18.474Z,46.20
2023-04-23T02:35:48.325Z,52.10
2023-04-23T02:38:21.415Z,45.60
2023-04-23T02:40:52.669Z,51.07
2023-04-23T02:43:22.432Z,59.53
2023-04-23T02:45:52.194Z,51.10
2023-04-23T02:48:22.512Z,49.43
2023-04-23T02:50:52.496Z,50.40
2023-04-23T02:53:24.899Z,52.80
2023-04-23T02:55:54.662Z,48.17
2023-04-23T02:58:24.437Z,47.07
2023-04-23T03:00:56.692Z,53.60
2023-04-23T03:03:32.057Z,51.80
2023-04-23T03:06:04.325Z,52.43
2023-04-23T03:08:37.028Z,52.67
2023-04-23T03:11:06.879Z,49.57
2023-04-23T03:13:36.688Z,48.10
2023-04-23T03:16:06.750Z,56.23
2023-04-23T03:18:37.415Z,53.87
2023-04-23T03:21:07.383Z,51.77
2023-04-23T03:23:39.747Z,53.83
2023-04-23T03:26:09.525Z,54.93
2023-04-23T03:28:39.278Z,55.50
2023-04-23T03:31:09.083Z,52.70
2023-04-23T03:33:38.896Z,53.10
2023-04-23T03:36:09.025Z,53.20
2023-04-23T03:38:41.394Z,54.60
2023-04-23T03:41:11.371Z,54.43
2023-04-23T03:43:43.974Z,54.53
2023-04-23T03:46:21.651Z,52.67
2023-04-23T03:48:51.544Z,53.17
2023-04-23T03:51:28.337Z,52.70
2023-04-23T03:54:00.919Z,53.90
2023-04-23T03:56:38.360Z,52.40
2023-04-23T03:59:23.871Z,47.00
2023-04-23T04:01:56.087Z,50.70
2023-04-23T04:04:28.823Z,51.00
2023-04-23T04:07:00.540Z,53.30
2023-04-23T04:09:33.366Z,52.03
2023-04-23T04:12:04.683Z,51.83
2023-04-23T04:14:34.557Z,53.53
2023-04-23T04:17:04.272Z,47.00
2023-04-23T04:19:34.031Z,55.70
2023-04-23T04:22:04.167Z,54.70
2023-04-23T04:24:36.561Z,49.30
2023-04-23T04:27:07.552Z,50.70
2023-04-23T04:29:37.377Z,50.53
2023-04-23T04:32:07.140Z,51.67
2023-04-23T04:34:38.538Z,53.07
2023-04-23T04:37:10.156Z,47.77
2023-04-23T04:39:42.857Z,46.60
2023-04-23T04:42:13.243Z,49.20
2023-04-23T04:44:43.895Z,50.13
2023-04-23T04:47:13.747Z,49.80
2023-04-23T04:49:43.450Z,50.50
2023-04-23T04:52:13.204Z,48.07
2023-04-23T04:54:45.523Z,47.43
2023-04-23T04:57:15.234Z,51.63
2023-04-23T04:59:44.988Z,44.33
2023-04-23T05:02:14.822Z,44.00
2023-04-23T05:04:44.751Z,47.63
2023-04-23T05:07:14.570Z,47.80
2023-04-23T05:09:46.944Z,47.47
2023-04-23T05:12:16.691Z,48.30
2023-04-23T05:14:46.746Z,45.37
2023-04-23T05:17:16.442Z,43.77
2023-04-23T05:19:46.181Z,47.90
2023-04-23T05:22:15.983Z,46.53
2023-04-23T05:24:48.285Z,48.90
2023-04-23T05:27:18.027Z,46.17
2023-04-23T05:29:47.846Z,46.73
2023-04-23T05:32:17.857Z,45.77
2023-04-23T05:34:47.706Z,42.40
2023-04-23T05:37:17.436Z,48.70
2023-04-23T05:39:49.709Z,51.77
2023-04-23T05:42:19.423Z,42.50
2023-04-23T05:44:49.131Z,45.30
2023-04-23T05:47:18.883Z,46.97
2023-04-23T05:49:48.746Z,47.70
2023-04-23T05:52:18.678Z,46.37
2023-04-23T05:54:51.136Z,45.73
2023-04-23T05:57:21.162Z,47.77
2023-04-23T05:59:50.875Z,46.10
2023-04-23T06:02:23.235Z,46.30
2023-04-23T06:04:54.533Z,45.37
2023-04-23T06:07:24.507Z,52.33
2023-04-23T06:09:56.967Z,45.23
2023-04-23T06:12:26.714Z,43.80
2023-04-23T06:14:56.567Z,54.60
2023-04-23T06:17:26.356Z,44.30
2023-04-23T06:19:56.521Z,48.00
2023-04-23T06:22:26.255Z,51.10
2023-04-23T06:24:58.549Z,47.70
2023-04-23T06:27:28.333Z,53.63
2023-04-23T06:30:02.970Z,51.40
2023-04-23T06:32:32.724Z,51.60
2023-04-23T06:35:02.756Z,52.90
2023-04-23T06:37:33.563Z,49.90
2023-04-23T06:40:06.152Z,53.70
2023-04-23T06:42:35.985Z,55.70
2023-04-23T06:45:23.087Z,56.63
2023-04-23T06:47:55.022Z,54.10
2023-04-23T06:50:24.821Z,56.87
2023-04-23T06:52:56.460Z,57.77
2023-04-23T06:55:29.314Z,56.03
2023-04-23T06:57:59.414Z,55.27
2023-04-23T07:00:29.252Z,57.70
2023-04-23T07:02:59.472Z,57.50
2023-04-23T07:05:29.440Z,56.93
2023-04-23T07:07:59.184Z,55.43
2023-04-23T07:10:31.526Z,58.10
2023-04-23T07:13:01.749Z,62.40
2023-04-23T07:15:31.517Z,61.50
2023-04-23T07:18:01.286Z,57.57
2023-04-23T07:20:31.104Z,59.93
2023-04-23T07:23:01.279Z,58.30
2023-04-23T07:25:33.942Z,52.60
2023-04-23T07:28:04.225Z,52.13
2023-04-23T07:30:34.195Z,59.40
2023-04-23T07:33:03.994Z,54.53
2023-04-23T07:35:33.838Z,55.93
2023-04-23T07:38:04.414Z,49.43
2023-04-23T07:40:37.239Z,51.23
2023-04-23T07:43:07.016Z,52.30
2023-04-23T07:45:36.745Z,47.00
2023-04-23T07:48:06.716Z,41.57
2023-04-23T07:50:36.477Z,44.53
2023-04-23T07:53:06.501Z,44.50
2023-04-23T07:55:38.892Z,47.33
2023-04-23T07:58:08.640Z,48.03
2023-04-23T08:00:38.877Z,49.30
2023-04-23T08:03:08.722Z,51.47
2023-04-23T08:05:41.298Z,43.90
2023-04-23T08:08:11.305Z,38.53
2023-04-23T08:10:43.943Z,35.50
2023-04-23T08:13:13.974Z,36.70
2023-04-23T08:15:43.760Z,32.20
2023-04-23T08:18:13.519Z,37.10
2023-04-23T08:20:43.382Z,39.60
2023-04-23T08:23:13.604Z,33.50
2023-04-23T08:25:46.270Z,34.57
2023-04-23T08:28:16.669Z,34.33
2023-04-23T08:30:46.592Z,32.60
2023-04-23T08:33:16.694Z,28.70
2023-04-23T08:35:46.410Z,37.83
2023-04-23T08:38:16.276Z,34.53
2023-04-23T08:40:50.263Z,36.97
2023-04-23T08:43:22.754Z,33.63
2023-04-23T08:45:52.740Z,35.53
2023-04-23T08:48:22.717Z,27.13
2023-04-23T08:50:52.573Z,24.83
2023-04-23T08:53:24.029Z,28.03
2023-04-23T08:55:58.530Z,22.43
2023-04-23T08:58:28.558Z,22.30
2023-04-23T09:00:59.022Z,21.13
2023-04-23T09:03:29.130Z,19.07
2023-04-23T09:05:59.185Z,23.07
2023-04-23T09:08:29.230Z,21.03
2023-04-23T09:11:04.581Z,22.43
2023-04-23T09:13:34.793Z,22.03
2023-04-23T09:16:04.656Z,23.20
2023-04-23T09:18:34.744Z,18.83
2023-04-23T09:21:05.659Z,19.00
2023-04-23T09:23:38.609Z,20.93
2023-04-23T09:26:11.613Z,18.63
2023-04-23T09:28:42.643Z,18.47
2023-04-23T09:31:16.310Z,15.73
2023-04-23T09:33:47.256Z,16.77
2023-04-23T09:36:19.391Z,15.30
2023-04-23T09:38:51.375Z,15.43
2023-04-23T09:41:30.145Z,16.47
2023-04-23T09:44:01.234Z,14.10
2023-04-23T09:46:39.767Z,19.57
2023-04-23T09:49:15.858Z,12.37
2023-04-23T09:51:49.206Z,12.80
2023-04-23T09:54:23.921Z,9.80
2023-04-23T09:57:00.375Z,13.10
2023-04-23T09:59:46.623Z,9.33
2023-04-23T10:02:19.241Z,11.33
2023-04-23T10:05:03.412Z,13.47
2023-04-23T10:07:40.925Z,12.60
2023-04-23T10:10:12.113Z,10.30
2023-04-23T10:12:54.354Z,10.73
2023-04-23T10:15:28.220Z,9.40
2023-04-23T10:17:59.376Z,8.50
2023-04-23T10:20:29.259Z,8.70
2023-04-23T10:23:02.511Z,7.00
2023-04-23T10:25:32.891Z,8.10
2023-04-23T10:28:07.826Z,6.87
2023-04-23T10:30:40.020Z,7.43
2023-04-23T10:33:22.461Z,8.70
2023-04-23T10:35:59.673Z,11.83
2023-04-23T10:38:30.696Z,6.43
2023-04-23T10:41:03.197Z,7.13
2023-04-23T10:43:35.794Z,7.47
2023-04-23T10:46:05.674Z,6.23
2023-04-23T10:49:08.364Z,8.30
2023-04-23T10:54:12.875Z,10.93
2023-04-23T10:56:43.170Z,10.73
2023-04-23T10:59:24.330Z,7.40
2023-04-23T11:01:54.143Z,8.77
2023-04-23T11:04:25.949Z,7.87
2023-04-23T11:07:11.643Z,8.27
2023-04-23T11:09:44.686Z,7.00
2023-04-23T11:12:15.873Z,9.40
2023-04-23T11:14:50.274Z,10.80
2023-04-23T11:17:21.551Z,8.10
2023-04-23T11:20:14.168Z,7.50
2023-04-23T11:22:45.992Z,7.80
2023-04-23T11:25:17.862Z,6.97
2023-04-23T11:27:49.162Z,7.90
2023-04-23T11:30:24.806Z,10.07
2023-04-23T11:32:55.798Z,10.47
2023-04-23T11:35:28.754Z,10.80
2023-04-23T11:37:59.255Z,8.63
2023-04-23T11:40:31.238Z,6.07
2023-04-23T11:43:01.093Z,8.20
2023-04-23T11:45:33.484Z,9.70
2023-04-23T11:48:04.015Z,10.33
2023-04-23T11:50:35.743Z,8.30
2023-04-23T11:53:08.097Z,6.73
2023-04-23T11:55:38.336Z,9.87
2023-04-23T11:58:08.079Z,7.30
2023-04-23T12:00:40.429Z,5.37
2023-04-23T12:03:10.316Z,3.97
2023-04-23T12:05:48.165Z,7.40
2023-04-23T12:08:20.359Z,6.83
2023-04-23T12:10:52.805Z,6.00
2023-04-23T12:13:25.019Z,6.17
2023-04-23T12:15:59.269Z,4.97
2023-04-23T12:18:31.012Z,5.70
2023-04-23T12:21:08.141Z,12.50
2023-04-23T12:23:38.481Z,8.00
2023-04-23T12:26:13.870Z,4.37
2023-04-23T12:28:49.201Z,3.57
2023-04-23T12:31:26.056Z,5.60
2023-04-23T12:34:05.498Z,3.47
2023-04-23T12:36:35.969Z,5.73
2023-04-23T12:39:24.481Z,3.33
2023-04-23T12:41:56.800Z,2.70
2023-04-23T12:44:26.634Z,1.73
2023-04-23T12:47:04.977Z,5.77
2023-04-23T12:49:35.984Z,2.67
2023-04-23T12:52:07.413Z,7.23
2023-04-23T12:54:39.312Z,4.70
2023-04-23T12:57:10.697Z,4.40
2023-04-23T12:59:41.061Z,6.40
2023-04-23T13:02:13.918Z,1.97
2023-04-23T13:04:43.794Z,3.70
2023-04-23T13:07:14.110Z,3.60
2023-04-23T13:09:44.066Z,3.00
2023-04-23T13:12:14.079Z,1.33
2023-04-23T13:14:43.800Z,5.40
2023-04-23T13:17:16.131Z,3.87
2023-04-23T13:19:46.027Z,5.30
2023-04-23T13:22:15.798Z,2.93
2023-04-23T13:24:45.580Z,2.53
2023-04-23T13:27:15.313Z,2.80
2023-04-23T13:29:45.031Z,3.87
2023-04-23T13:32:17.405Z,3.50
2023-04-23T13:34:47.328Z,1.67
2023-04-23T13:37:17.194Z,2.23
2023-04-23T13:39:47.429Z,0.80
2023-04-23T13:42:17.380Z,1.77
2023-04-23T13:44:47.112Z,1.23
2023-04-23T13:47:19.448Z,2.07
2023-04-23T13:49:49.256Z,3.00
2023-04-23T13:52:18.979Z,2.90
2023-04-23T13:54:49.315Z,2.23
2023-04-23T13:57:19.088Z,2.43
2023-04-23T13:59:48.836Z,2.77
2023-04-23T14:02:21.195Z,2.20
2023-04-23T14:04:51.272Z,10.17
2023-04-23T14:07:21.202Z,2.10
2023-04-23T14:09:53.010Z,3.10
2023-04-23T14:12:24.188Z,1.20
2023-04-23T14:14:54.018Z,1.90
2023-04-23T14:17:26.366Z,1.70
2023-04-23T14:19:56.102Z,6.57
2023-04-23T14:22:26.313Z,2.50
2023-04-23T14:25:00.371Z,5.23
2023-04-23T14:27:30.787Z,2.57
2023-04-23T14:30:05.517Z,1.27
2023-04-23T14:32:40.416Z,4.30
2023-04-23T14:35:11.249Z,1.83
2023-04-23T14:37:43.311Z,2.63
2023-04-23T14:40:19.577Z,3.87
2023-04-23T14:42:50.498Z,3.60
2023-04-23T14:45:20.714Z,2.07
2023-04-23T14:47:53.151Z,3.80
2023-04-23T14:50:23.710Z,3.03
2023-04-23T14:52:53.808Z,3.97
2023-04-23T14:55:24.591Z,4.90
2023-04-23T14:57:54.399Z,2.47
2023-04-23T15:00:25.315Z,1.30
2023-04-23T15:02:57.911Z,6.80
2023-04-23T15:05:28.226Z,2.93
2023-04-23T15:07:57.964Z,6.80
2023-04-23T15:10:27.906Z,2.93
2023-04-23T15:13:04.290Z,4.97
2023-04-23T15:15:45.588Z,1.40
2023-04-23T15:18:18.390Z,2.80
2023-04-23T15:20:48.177Z,1.50
2023-04-23T15:23:20.975Z,2.10
2023-04-23T15:25:52.256Z,2.10
2023-04-23T15:28:22.020Z,3.40
2023-04-23T15:30:51.818Z,3.60
2023-04-23T15:33:24.110Z,2.00
2023-04-23T15:35:53.846Z,3.43
2023-04-23T15:38:23.614Z,10.10
2023-04-23T15:40:53.409Z,5.13
2023-04-23T15:43:23.135Z,4.93
2023-04-23T15:45:54.790Z,2.57
2023-04-23T15:48:27.493Z,4.30
2023-04-23T15:50:57.290Z,4.40
2023-04-23T15:53:27.105Z,2.60
2023-04-23T15:55:57.662Z,3.00
2023-04-23T15:58:27.423Z,2.27
2023-04-23T16:00:57.179Z,5.90
2023-04-23T16:03:29.673Z,2.70
2023-04-23T16:05:59.610Z,3.83
2023-04-23T16:08:29.325Z,3.30
2023-04-23T16:10:59.563Z,5.23
2023-04-23T16:13:29.463Z,2.10
2023-04-23T16:15:59.256Z,3.43
2023-04-23T16:18:31.950Z,9.83
2023-04-23T16:21:01.726Z,4.40
2023-04-23T16:23:31.843Z,4.77
2023-04-23T16:26:02.217Z,9.13
2023-04-23T16:28:31.966Z,5.93
2023-04-23T16:31:01.726Z,3.80
2023-04-23T16:33:34.072Z,12.93
2023-04-23T16:36:03.984Z,5.00
2023-04-23T16:38:33.876Z,4.27
2023-04-23T16:41:03.615Z,4.93
2023-04-23T16:43:33.437Z,2.97
2023-04-23T16:46:03.333Z,5.87
2023-04-23T16:48:35.747Z,2.93
2023-04-23T16:51:05.610Z,4.60
2023-04-23T16:53:35.740Z,7.80
2023-04-23T16:56:05.771Z,3.93
2023-04-23T16:58:36.172Z,4.27
2023-04-23T17:01:06.019Z,6.83
2023-04-23T17:03:39.484Z,3.53
2023-04-23T17:06:13.604Z,3.80
2023-04-23T17:08:43.489Z,2.93
2023-04-23T17:11:13.344Z,2.90
2023-04-23T17:13:43.765Z,4.80
2023-04-23T17:16:13.913Z,4.90
2023-04-23T17:18:46.354Z,3.67
2023-04-23T17:21:16.211Z,10.37
2023-04-23T17:23:46.062Z,9.57
2023-04-23T17:26:16.236Z,5.17
2023-04-23T17:28:46.295Z,4.43
2023-04-23T17:31:16.484Z,6.67
2023-04-23T17:33:49.638Z,3.90
2023-04-23T17:36:19.718Z,10.70
2023-04-23T17:38:49.412Z,5.80
2023-04-23T17:41:19.806Z,8.57
2023-04-23T17:43:49.506Z,4.70
2023-04-23T17:46:19.577Z,3.73
2023-04-23T17:48:52.175Z,6.30
2023-04-23T17:51:22.250Z,10.03
2023-04-23T17:53:52.389Z,4.60
2023-04-23T17:56:22.355Z,4.90
2023-04-23T17:58:52.105Z,4.50
2023-04-23T18:01:22.039Z,2.93
2023-04-23T18:03:55.085Z,6.47
2023-04-23T18:06:25.578Z,3.40
2023-04-23T18:08:55.434Z,4.40
2023-04-23T18:11:25.197Z,6.67
2023-04-23T18:13:55.816Z,6.87
2023-04-23T18:16:25.662Z,4.73
2023-04-23T18:18:58.181Z,5.33
2023-04-23T18:21:29.454Z,4.13
2023-04-23T18:23:59.342Z,1.87
2023-04-23T18:26:29.308Z,3.30
2023-04-23T18:28:59.106Z,3.73
2023-04-23T18:31:28.904Z,4.57
2023-04-23T18:34:04.780Z,2.00
2023-04-23T18:36:36.280Z,5.90
2023-04-23T18:39:07.587Z,4.03
2023-04-23T18:41:37.658Z,4.37
2023-04-23T18:44:07.706Z,6.50
2023-04-23T18:46:37.538Z,5.07
2023-04-23T18:49:51.301Z,3.93
2023-04-23T18:52:21.052Z,3.27
2023-04-23T18:54:50.966Z,4.80
2023-04-23T18:57:21.267Z,3.30
2023-04-23T18:59:51.320Z,5.63
2023-04-23T19:02:34.445Z,5.60
2023-04-23T19:05:08.745Z,4.80
2023-04-23T19:07:40.671Z,4.00
2023-04-23T19:10:12.115Z,9.90
2023-04-23T19:12:41.993Z,7.80
2023-04-23T19:15:14.417Z,2.00
2023-04-23T19:17:44.369Z,5.73
2023-04-23T19:20:18.753Z,1.77
2023-04-23T19:22:48.497Z,5.13
2023-04-23T19:25:18.448Z,4.20
2023-04-23T19:27:48.182Z,2.97
2023-04-23T19:30:18.173Z,8.63
2023-04-23T19:32:48.115Z,11.57
2023-04-23T19:35:20.730Z,3.20
2023-04-23T19:37:51.172Z,6.40
2023-04-23T19:40:21.061Z,6.67
2023-04-23T19:42:50.985Z,5.20
2023-04-23T19:45:20.864Z,1.50
2023-04-23T19:47:51.023Z,3.07
2023-04-23T19:50:23.747Z,2.73
2023-04-23T19:52:53.796Z,3.93
2023-04-23T19:55:27.282Z,4.10
2023-04-23T19:57:58.623Z,1.70
2023-04-23T20:00:31.396Z,2.30
2023-04-23T20:03:01.304Z,4.50
2023-04-23T20:05:34.053Z,7.40
2023-04-23T20:08:07.039Z,5.80
2023-04-23T20:10:36.972Z,2.40
2023-04-23T20:13:06.723Z,4.97
2023-04-23T20:15:36.878Z,4.57
2023-04-23T20:18:06.880Z,2.30
2023-04-23T20:20:40.107Z,4.80
2023-04-23T20:23:09.895Z,3.10
2023-04-23T20:25:39.952Z,2.57
2023-04-23T20:28:09.802Z,4.87
2023-04-23T20:30:39.959Z,2.73
2023-04-23T20:33:10.613Z,2.30
2023-04-23T20:35:44.711Z,1.87
2023-04-23T20:38:19.471Z,1.80
2023-04-23T20:40:50.303Z,6.30
2023-04-23T20:43:20.126Z,2.03
2023-04-23T20:45:49.914Z,2.00
2023-04-23T20:48:20.081Z,2.10
2023-04-23T20:50:52.519Z,3.80
2023-04-23T20:53:22.441Z,3.27
2023-04-23T20:55:52.318Z,2.83
2023-04-23T20:58:22.053Z,2.50
2023-04-23T21:00:51.856Z,1.20
2023-04-23T21:03:21.871Z,3.37
2023-04-23T21:05:54.338Z,3.83
2023-04-23T21:08:24.063Z,1.63
2023-04-23T21:10:54.053Z,3.33
2023-04-23T21:13:23.868Z,2.97
2023-04-23T21:15:53.739Z,1.33
2023-04-23T21:18:23.745Z,1.90
2023-04-23T21:20:56.391Z,2.07
2023-04-23T21:23:26.326Z,1.73
2023-04-23T21:25:56.149Z,3.00
2023-04-23T21:28:26.217Z,4.13
2023-04-23T21:30:58.408Z,2.60
2023-04-23T21:33:28.458Z,2.03
2023-04-23T21:36:00.781Z,2.23
2023-04-23T21:38:30.489Z,3.00
2023-04-23T21:41:00.236Z,1.63
2023-04-23T21:43:35.556Z,2.93
2023-04-23T21:46:05.547Z,5.47
2023-04-23T21:48:35.685Z,1.70
2023-04-23T21:51:08.353Z,2.40
2023-04-23T21:53:38.141Z,2.67
2023-04-23T21:56:08.584Z,1.90
2023-04-23T21:58:38.484Z,3.60
2023-04-23T22:01:08.809Z,1.83
2023-04-23T22:03:42.570Z,2.30
2023-04-23T22:06:15.812Z,4.00
2023-04-23T22:08:46.412Z,3.87
2023-04-23T22:11:17.537Z,2.40
2023-04-23T22:13:47.504Z,1.20
2023-04-23T22:16:28.045Z,2.13
2023-04-23T22:18:58.694Z,3.07
2023-04-23T22:21:31.575Z,2.37
2023-04-23T22:24:03.496Z,1.60
2023-04-23T22:26:34.109Z,1.60
2023-04-23T22:29:03.920Z,1.53
2023-04-23T22:31:34.367Z,1.87
2023-04-23T22:34:04.149Z,1.30
2023-04-23T22:36:36.685Z,1.40
2023-04-23T22:39:06.798Z,1.37
2023-04-23T22:41:38.898Z,1.00
2023-04-23T22:44:09.479Z,2.70
2023-04-23T22:46:39.418Z,0.97
2023-04-23T22:49:11.380Z,2.23
2023-04-23T22:51:44.005Z,2.70
2023-04-23T22:54:13.725Z,1.53
2023-04-23T22:56:43.747Z,1.57
2023-04-23T22:59:14.269Z,2.13
2023-04-23T23:01:44.288Z,2.33
2023-04-23T23:04:14.438Z,1.50
2023-04-23T23:06:46.824Z,2.67
2023-04-23T23:09:16.626Z,1.40
2023-04-23T23:11:46.364Z,2.30
2023-04-23T23:14:16.993Z,1.73
2023-04-23T23:16:46.735Z,3.50
2023-04-23T23:19:16.638Z,1.97
2023-04-23T23:21:48.980Z,1.83
2023-04-23T23:24:19.228Z,0.90
2023-04-23T23:26:49.407Z,1.20
2023-04-23T23:29:19.494Z,1.10
2023-04-23T23:31:49.808Z,1.77
2023-04-23T23:34:19.556Z,1.30
2023-04-23T23:36:52.100Z,2.17
2023-04-23T23:39:22.007Z,1.60
2023-04-23T23:41:51.731Z,1.07
2023-04-23T23:44:21.513Z,2.03
2023-04-23T23:46:52.187Z,1.10
2023-04-23T23:49:22.552Z,10.43
2023-04-23T23:51:55.001Z,1.07
2023-04-23T23:54:24.707Z,1.37
2023-04-23T23:56:55.793Z,5.10
2023-04-23T23:59:25.999Z,2.67
